sensor_id;sensor_type;location;lat;lon;timestamp;P1;durP1;ratioP1;P2;durP2;ratioP2
3943;SDS011;1986;52.546;13.428;2023-05-07T00:01:48;2.50;;;2.30;;
3943;SDS011;1986;52.546;13.428;2023-05-07T00:04:19;0.80;;;0.80;;
3943;SDS011;1986;52.546;13.428;2023-05-07T00:06:48;3.87;;;3.43;;
3943;SDS011;1986;52.546;13.428;2023-05-07T00:09:25;5.63;;;3.83;;
3943;SDS011;1986;52.546;13.428;2023-05-07T00:11:57;1.13;;;1.13;;
3943;SDS011;1986;52.546;13.428;2023-05-07T00:14:26;0.80;;;0.80;;
3943;SDS011;1986;52.546;13.428;2023-05-07T00:16:55;1.37;;;1.37;;
3943;SDS011;1986;52.546;13.428;2023-05-07T00:19:22;2.73;;;2.20;;
3943;SDS011;1986;52.546;13.428;2023-05-07T00:21:49;2.97;;;1.83;;
3943;SDS011;1986;52.546;13.428;2023-05-07T00:24:18;2.83;;;2.63;;
3943;SDS011;1986;52.546;13.428;2023-05-07T00:26:46;3.10;;;2.80;;
3943;SDS011;1986;52.546;13.428;2023-05-07T00:29:15;6.80;;;6.30;;
3943;SDS011;1986;52.546;13.428;2023-05-07T00:31:43;2.43;;;1.57;;
3943;SDS011;1986;52.546;13.428;2023-05-07T00:34:10;2.80;;;1.77;;
3943;SDS011;1986;52.546;13.428;2023-05-07T00:36:38;0.90;;;0.90;;
3943;SDS011;1986;52.546;13.428;2023-05-07T00:39:10;7.30;;;2.87;;
3943;SDS011;1986;52.546;13.428;2023-05-07T00:41:41;0.90;;;0.90;;
3943;SDS011;1986;52.546;13.428;2023-05-07T00:44:19;2.00;;;1.90;;
3943;SDS011;1986;52.546;13.428;2023-05-07T00:46:47;6.20;;;2.90;;
3943;SDS011;1986;52.546;13.428;2023-05-07T00:49:15;2.87;;;2.33;;
3943;SDS011;1986;52.546;13.428;2023-05-07T00:51:46;1.93;;;1.70;;
3943;SDS011;1986;52.546;13.428;2023-05-07T00:54:19;4.40;;;4.00;;
3943;SDS011;1986;52.546;13.428;2023-05-07T00:56:59;1.63;;;1.53;;
3943;SDS011;1986;52.546;13.428;2023-05-07T00:59:29;7.03;;;3.30;;
3943;SDS011;1986;52.546;13.428;2023-05-07T01:01:59;2.77;;;1.37;;
3943;SDS011;1986;52.546;13.428;2023-05-07T01:04:27;2.20;;;2.10;;
3943;SDS011;1986;52.546;13.428;2023-05-07T01:06:54;2.57;;;1.70;;
3943;SDS011;1986;52.546;13.428;2023-05-07T01:09:23;2.40;;;2.30;;
3943;SDS011;1986;52.546;13.428;2023-05-07T01:11:53;3.70;;;2.10;;
3943;SDS011;1986;52.546;13.428;2023-05-07T01:14:22;13.13;;;4.40;;
3943;SDS011;1986;52.546;13.428;2023-05-07T01:16:52;1.33;;;1.23;;
3943;SDS011;1986;52.546;13.428;2023-05-07T01:19:21;2.70;;;2.60;;
3943;SDS011;1986;52.546;13.428;2023-05-07T01:21:48;3.37;;;3.07;;
3943;SDS011;1986;52.546;13.428;2023-05-07T01:24:19;8.30;;;5.67;;
3943;SDS011;1986;52.546;13.428;2023-05-07T01:26:46;7.53;;;4.40;;
3943;SDS011;1986;52.546;13.428;2023-05-07T01:29:20;2.67;;;2.50;;
3943;SDS011;1986;52.546;13.428;2023-05-07T01:31:49;1.73;;;1.23;;
3943;SDS011;1986;52.546;13.428;2023-05-07T01:34:36;2.13;;;2.03;;
3943;SDS011;1986;52.546;13.428;2023-05-07T01:37:03;3.27;;;3.00;;
3943;SDS011;1986;52.546;13.428;2023-05-07T01:39:38;1.83;;;1.77;;
3943;SDS011;1986;52.546;13.428;2023-05-07T01:42:08;3.17;;;3.07;;
3943;SDS011;1986;52.546;13.428;2023-05-07T01:44:36;3.13;;;3.03;;
3943;SDS011;1986;52.546;13.428;2023-05-07T01:47:03;3.57;;;3.37;;
3943;SDS011;1986;52.546;13.428;2023-05-07T01:49:32;1.33;;;1.33;;
3943;SDS011;1986;52.546;13.428;2023-05-07T01:52:03;1.53;;;1.53;;
3943;SDS011;1986;52.546;13.428;2023-05-07T01:54:37;4.23;;;3.83;;
3943;SDS011;1986;52.546;13.428;2023-05-07T01:57:07;0.90;;;0.90;;
3943;SDS011;1986;52.546;13.428;2023-05-07T01:59:34;5.70;;;3.10;;
3943;SDS011;1986;52.546;13.428;2023-05-07T02:02:01;2.53;;;2.53;;
3943;SDS011;1986;52.546;13.428;2023-05-07T02:04:44;4.47;;;4.10;;
3943;SDS011;1986;52.546;13.428;2023-05-07T02:07:13;3.53;;;3.30;;
3943;SDS011;1986;52.546;13.428;2023-05-07T02:09:43;1.00;;;1.00;;
3943;SDS011;1986;52.546;13.428;2023-05-07T02:12:12;2.70;;;2.60;;
3943;SDS011;1986;52.546;13.428;2023-05-07T02:14:40;3.23;;;2.10;;
3943;SDS011;1986;52.546;13.428;2023-05-07T02:17:16;4.63;;;4.20;;
3943;SDS011;1986;52.546;13.428;2023-05-07T02:19:51;4.90;;;3.60;;
3943;SDS011;1986;52.546;13.428;2023-05-07T02:22:20;1.00;;;1.00;;
3943;SDS011;1986;52.546;13.428;2023-05-07T02:24:49;1.00;;;1.00;;
3943;SDS011;1986;52.546;13.428;2023-05-07T02:27:19;3.60;;;3.30;;
3943;SDS011;1986;52.546;13.428;2023-05-07T02:29:46;1.90;;;1.80;;
3943;SDS011;1986;52.546;13.428;2023-05-07T02:32:14;1.20;;;1.20;;
3943;SDS011;1986;52.546;13.428;2023-05-07T02:34:41;1.87;;;1.87;;
3943;SDS011;1986;52.546;13.428;2023-05-07T02:37:11;2.53;;;2.40;;
3943;SDS011;1986;52.546;13.428;2023-05-07T02:39:44;9.47;;;5.40;;
3943;SDS011;1986;52.546;13.428;2023-05-07T02:42:13;2.33;;;2.20;;
3943;SDS011;1986;52.546;13.428;2023-05-07T02:44:40;1.50;;;1.50;;
3943;SDS011;1986;52.546;13.428;2023-05-07T02:47:07;5.93;;;4.20;;
3943;SDS011;1986;52.546;13.428;2023-05-07T02:49:35;7.90;;;2.57;;
3943;SDS011;1986;52.546;13.428;2023-05-07T02:52:04;3.23;;;3.10;;
3943;SDS011;1986;52.546;13.428;2023-05-07T02:54:31;3.63;;;3.43;;
3943;SDS011;1986;52.546;13.428;2023-05-07T02:56:58;4.87;;;4.53;;
3943;SDS011;1986;52.546;13.428;2023-05-07T02:59:27;3.13;;;2.93;;
3943;SDS011;1986;52.546;13.428;2023-05-07T03:01:54;1.70;;;1.70;;
3943;SDS011;1986;52.546;13.428;2023-05-07T03:06:57;5.60;;;4.50;;
3943;SDS011;1986;52.546;13.428;2023-05-07T03:09:26;10.03;;;3.90;;
3943;SDS011;1986;52.546;13.428;2023-05-07T03:11:53;2.27;;;2.27;;
3943;SDS011;1986;52.546;13.428;2023-05-07T03:14:24;1.60;;;1.60;;
3943;SDS011;1986;52.546;13.428;2023-05-07T03:16:52;2.33;;;2.23;;
3943;SDS011;1986;52.546;13.428;2023-05-07T03:19:28;1.93;;;1.83;;
3943;SDS011;1986;52.546;13.428;2023-05-07T03:21:56;2.57;;;2.47;;
3943;SDS011;1986;52.546;13.428;2023-05-07T03:24:23;4.00;;;2.87;;
3943;SDS011;1986;52.546;13.428;2023-05-07T03:26:50;6.60;;;4.50;;
3943;SDS011;1986;52.546;13.428;2023-05-07T03:29:17;3.37;;;3.27;;
3943;SDS011;1986;52.546;13.428;2023-05-07T03:31:44;2.73;;;2.63;;
3943;SDS011;1986;52.546;13.428;2023-05-07T03:34:13;1.50;;;1.50;;
3943;SDS011;1986;52.546;13.428;2023-05-07T03:36:48;3.83;;;3.73;;
3943;SDS011;1986;52.546;13.428;2023-05-07T03:39:15;5.33;;;3.37;;
3943;SDS011;1986;52.546;13.428;2023-05-07T03:41:47;4.50;;;4.13;;
3943;SDS011;1986;52.546;13.428;2023-05-07T03:44:16;2.03;;;1.60;;
3943;SDS011;1986;52.546;13.428;2023-05-07T03:46:45;4.80;;;4.50;;
3943;SDS011;1986;52.546;13.428;2023-05-07T03:49:15;7.73;;;4.90;;
3943;SDS011;1986;52.546;13.428;2023-05-07T03:51:51;5.90;;;5.40;;
3943;SDS011;1986;52.546;13.428;2023-05-07T03:54:18;7.40;;;4.47;;
3943;SDS011;1986;52.546;13.428;2023-05-07T03:56:45;3.37;;;3.17;;
3943;SDS011;1986;52.546;13.428;2023-05-07T03:59:12;4.13;;;3.83;;
3943;SDS011;1986;52.546;13.428;2023-05-07T04:01:42;2.33;;;2.13;;
3943;SDS011;1986;52.546;13.428;2023-05-07T04:04:09;1.83;;;1.83;;
3943;SDS011;1986;52.546;13.428;2023-05-07T04:06:37;2.97;;;2.70;;
3943;SDS011;1986;52.546;13.428;2023-05-07T04:09:05;2.00;;;2.00;;
3943;SDS011;1986;52.546;13.428;2023-05-07T04:11:32;2.80;;;2.70;;
3943;SDS011;1986;52.546;13.428;2023-05-07T04:14:00;4.97;;;4.67;;
3943;SDS011;1986;52.546;13.428;2023-05-07T04:16:27;1.90;;;1.90;;
3943;SDS011;1986;52.546;13.428;2023-05-07T04:18:54;3.20;;;3.00;;
3943;SDS011;1986;52.546;13.428;2023-05-07T04:21:21;4.80;;;4.50;;
3943;SDS011;1986;52.546;13.428;2023-05-07T04:23:52;2.33;;;2.33;;
3943;SDS011;1986;52.546;13.428;2023-05-07T04:26:19;4.87;;;4.47;;
3943;SDS011;1986;52.546;13.428;2023-05-07T04:28:48;1.63;;;1.63;;
3943;SDS011;1986;52.546;13.428;2023-05-07T04:31:15;2.63;;;2.53;;
3943;SDS011;1986;52.546;13.428;2023-05-07T04:33:42;7.47;;;5.10;;
3943;SDS011;1986;52.546;13.428;2023-05-07T04:36:09;3.23;;;3.13;;
3943;SDS011;1986;52.546;13.428;2023-05-07T04:38:36;15.60;;;6.17;;
3943;SDS011;1986;52.546;13.428;2023-05-07T04:41:12;2.20;;;2.20;;
3943;SDS011;1986;52.546;13.428;2023-05-07T04:43:46;2.30;;;2.30;;
3943;SDS011;1986;52.546;13.428;2023-05-07T04:46:14;4.20;;;4.00;;
3943;SDS011;1986;52.546;13.428;2023-05-07T04:48:41;3.20;;;3.10;;
3943;SDS011;1986;52.546;13.428;2023-05-07T04:51:11;4.77;;;4.47;;
3943;SDS011;1986;52.546;13.428;2023-05-07T04:53:38;4.00;;;3.67;;
3943;SDS011;1986;52.546;13.428;2023-05-07T04:56:06;3.97;;;3.80;;
3943;SDS011;1986;52.546;13.428;2023-05-07T04:58:35;4.10;;;3.90;;
3943;SDS011;1986;52.546;13.428;2023-05-07T05:01:02;3.80;;;3.70;;
3943;SDS011;1986;52.546;13.428;2023-05-07T05:03:29;3.73;;;3.63;;
3943;SDS011;1986;52.546;13.428;2023-05-07T05:05:56;4.57;;;4.43;;
3943;SDS011;1986;52.546;13.428;2023-05-07T05:08:26;5.00;;;4.90;;
3943;SDS011;1986;52.546;13.428;2023-05-07T05:10:53;6.10;;;5.80;;
3943;SDS011;1986;52.546;13.428;2023-05-07T05:13:20;5.03;;;4.83;;
3943;SDS011;1986;52.546;13.428;2023-05-07T05:15:48;6.00;;;5.37;;
3943;SDS011;1986;52.546;13.428;2023-05-07T05:18:16;4.80;;;4.67;;
3943;SDS011;1986;52.546;13.428;2023-05-07T05:20:43;6.67;;;6.27;;
3943;SDS011;1986;52.546;13.428;2023-05-07T05:23:16;7.57;;;7.17;;
3943;SDS011;1986;52.546;13.428;2023-05-07T05:25:43;4.87;;;4.77;;
3943;SDS011;1986;52.546;13.428;2023-05-07T05:28:10;7.30;;;7.00;;
3943;SDS011;1986;52.546;13.428;2023-05-07T05:30:38;6.23;;;6.10;;
3943;SDS011;1986;52.546;13.428;2023-05-07T05:33:07;10.00;;;4.93;;
3943;SDS011;1986;52.546;13.428;2023-05-07T05:35:34;4.60;;;4.50;;
3943;SDS011;1986;52.546;13.428;2023-05-07T05:38:01;6.53;;;6.27;;
3943;SDS011;1986;52.546;13.428;2023-05-07T05:40:29;7.67;;;7.27;;
3943;SDS011;1986;52.546;13.428;2023-05-07T05:42:56;5.90;;;5.60;;
3943;SDS011;1986;52.546;13.428;2023-05-07T05:45:23;5.57;;;5.47;;
3943;SDS011;1986;52.546;13.428;2023-05-07T05:47:50;8.40;;;7.87;;
3943;SDS011;1986;52.546;13.428;2023-05-07T05:50:20;7.43;;;7.00;;
3943;SDS011;1986;52.546;13.428;2023-05-07T05:52:47;8.50;;;7.90;;
3943;SDS011;1986;52.546;13.428;2023-05-07T05:55:15;7.03;;;6.83;;
3943;SDS011;1986;52.546;13.428;2023-05-07T05:57:42;7.53;;;7.17;;
3943;SDS011;1986;52.546;13.428;2023-05-07T06:00:09;5.40;;;5.30;;
3943;SDS011;1986;52.546;13.428;2023-05-07T06:02:42;6.47;;;6.27;;
3943;SDS011;1986;52.546;13.428;2023-05-07T06:05:11;8.13;;;7.53;;
3943;SDS011;1986;52.546;13.428;2023-05-07T06:07:40;8.63;;;7.90;;
3943;SDS011;1986;52.546;13.428;2023-05-07T06:10:08;7.73;;;7.53;;
3943;SDS011;1986;52.546;13.428;2023-05-07T06:12:35;10.33;;;9.47;;
3943;SDS011;1986;52.546;13.428;2023-05-07T06:15:02;7.53;;;7.33;;
3943;SDS011;1986;52.546;13.428;2023-05-07T06:17:29;8.97;;;7.97;;
3943;SDS011;1986;52.546;13.428;2023-05-07T06:19:58;8.87;;;8.40;;
3943;SDS011;1986;52.546;13.428;2023-05-07T06:22:27;9.90;;;9.43;;
3943;SDS011;1986;52.546;13.428;2023-05-07T06:25:02;7.87;;;7.67;;
3943;SDS011;1986;52.546;13.428;2023-05-07T06:27:32;11.90;;;11.50;;
3943;SDS011;1986;52.546;13.428;2023-05-07T06:29:59;9.27;;;8.97;;
3943;SDS011;1986;52.546;13.428;2023-05-07T06:32:26;10.00;;;9.40;;
3943;SDS011;1986;52.546;13.428;2023-05-07T06:34:53;8.20;;;8.00;;
3943;SDS011;1986;52.546;13.428;2023-05-07T06:37:20;11.97;;;11.10;;
3943;SDS011;1986;52.546;13.428;2023-05-07T06:39:53;9.80;;;9.30;;
3943;SDS011;1986;52.546;13.428;2023-05-07T06:42:21;8.47;;;8.17;;
3943;SDS011;1986;52.546;13.428;2023-05-07T06:44:48;17.43;;;14.03;;
3943;SDS011;1986;52.546;13.428;2023-05-07T06:47:15;8.97;;;8.70;;
3943;SDS011;1986;52.546;13.428;2023-05-07T06:49:49;9.87;;;9.50;;
3943;SDS011;1986;52.546;13.428;2023-05-07T06:52:19;11.27;;;10.37;;
3943;SDS011;1986;52.546;13.428;2023-05-07T06:54:45;10.23;;;9.87;;
3943;SDS011;1986;52.546;13.428;2023-05-07T06:57:12;11.93;;;11.27;;
3943;SDS011;1986;52.546;13.428;2023-05-07T06:59:42;10.30;;;10.00;;
3943;SDS011;1986;52.546;13.428;2023-05-07T07:02:14;9.70;;;9.50;;
3943;SDS011;1986;52.546;13.428;2023-05-07T07:04:47;13.17;;;12.63;;
3943;SDS011;1986;52.546;13.428;2023-05-07T07:07:14;10.27;;;10.07;;
3943;SDS011;1986;52.546;13.428;2023-05-07T07:09:41;10.93;;;10.63;;
3943;SDS011;1986;52.546;13.428;2023-05-07T07:12:20;12.77;;;12.27;;
3943;SDS011;1986;52.546;13.428;2023-05-07T07:14:51;13.47;;;12.77;;
3943;SDS011;1986;52.546;13.428;2023-05-07T07:17:21;14.67;;;13.73;;
3943;SDS011;1986;52.546;13.428;2023-05-07T07:19:48;13.37;;;12.80;;
3943;SDS011;1986;52.546;13.428;2023-05-07T07:22:15;14.13;;;13.50;;
3943;SDS011;1986;52.546;13.428;2023-05-07T07:24:42;12.90;;;12.50;;
3943;SDS011;1986;52.546;13.428;2023-05-07T07:27:10;17.23;;;16.20;;
3943;SDS011;1986;52.546;13.428;2023-05-07T07:29:39;16.13;;;15.43;;
3943;SDS011;1986;52.546;13.428;2023-05-07T07:32:09;15.63;;;14.73;;
3943;SDS011;1986;52.546;13.428;2023-05-07T07:34:40;15.23;;;14.43;;
3943;SDS011;1986;52.546;13.428;2023-05-07T07:37:08;13.90;;;13.40;;
3943;SDS011;1986;52.546;13.428;2023-05-07T07:39:37;15.10;;;14.50;;
3943;SDS011;1986;52.546;13.428;2023-05-07T07:42:05;15.60;;;14.87;;
3943;SDS011;1986;52.546;13.428;2023-05-07T07:44:31;16.70;;;15.80;;
3943;SDS011;1986;52.546;13.428;2023-05-07T07:46:58;16.77;;;15.97;;
3943;SDS011;1986;52.546;13.428;2023-05-07T07:49:27;16.53;;;15.73;;
3943;SDS011;1986;52.546;13.428;2023-05-07T07:51:55;18.37;;;17.37;;
3943;SDS011;1986;52.546;13.428;2023-05-07T07:54:31;16.20;;;15.50;;
3943;SDS011;1986;52.546;13.428;2023-05-07T07:56:58;17.47;;;16.57;;
3943;SDS011;1986;52.546;13.428;2023-05-07T07:59:26;18.30;;;17.30;;
3943;SDS011;1986;52.546;13.428;2023-05-07T08:01:53;17.73;;;16.83;;
3943;SDS011;1986;52.546;13.428;2023-05-07T08:04:22;17.40;;;16.60;;
3943;SDS011;1986;52.546;13.428;2023-05-07T08:06:52;18.97;;;17.90;;
3943;SDS011;1986;52.546;13.428;2023-05-07T08:09:27;17.80;;;17.00;;
3943;SDS011;1986;52.546;13.428;2023-05-07T08:11:54;19.23;;;18.13;;
3943;SDS011;1986;52.546;13.428;2023-05-07T08:14:22;19.13;;;17.93;;
3943;SDS011;1986;52.546;13.428;2023-05-07T08:16:49;18.70;;;17.70;;
3943;SDS011;1986;52.546;13.428;2023-05-07T08:19:25;18.77;;;17.77;;
3943;SDS011;1986;52.546;13.428;2023-05-07T08:21:53;17.50;;;16.60;;
3943;SDS011;1986;52.546;13.428;2023-05-07T08:24:21;19.50;;;18.40;;
3943;SDS011;1986;52.546;13.428;2023-05-07T08:26:48;17.93;;;17.03;;
3943;SDS011;1986;52.546;13.428;2023-05-07T08:29:21;17.70;;;16.80;;
3943;SDS011;1986;52.546;13.428;2023-05-07T08:31:48;17.93;;;16.93;;
3943;SDS011;1986;52.546;13.428;2023-05-07T08:34:16;17.77;;;16.77;;
3943;SDS011;1986;52.546;13.428;2023-05-07T08:36:43;16.37;;;15.67;;
3943;SDS011;1986;52.546;13.428;2023-05-07T08:39:13;17.23;;;16.33;;
3943;SDS011;1986;52.546;13.428;2023-05-07T08:41:41;15.97;;;15.27;;
3943;SDS011;1986;52.546;13.428;2023-05-07T08:44:11;16.30;;;15.60;;
3943;SDS011;1986;52.546;13.428;2023-05-07T08:46:42;17.43;;;16.40;;
3943;SDS011;1986;52.546;13.428;2023-05-07T08:49:15;18.30;;;17.10;;
3943;SDS011;1986;52.546;13.428;2023-05-07T08:51:45;19.17;;;18.10;;
3943;SDS011;1986;52.546;13.428;2023-05-07T08:54:14;16.40;;;15.70;;
3943;SDS011;1986;52.546;13.428;2023-05-07T08:56:42;18.43;;;17.43;;
3943;SDS011;1986;52.546;13.428;2023-05-07T08:59:10;17.63;;;16.70;;
3943;SDS011;1986;52.546;13.428;2023-05-07T09:01:37;15.97;;;15.27;;
3943;SDS011;1986;52.546;13.428;2023-05-07T09:04:06;17.27;;;16.37;;
3943;SDS011;1986;52.546;13.428;2023-05-07T09:06:34;16.80;;;16.00;;
3943;SDS011;1986;52.546;13.428;2023-05-07T09:09:03;16.87;;;16.07;;
3943;SDS011;1986;52.546;13.428;2023-05-07T09:11:42;17.33;;;16.43;;
3943;SDS011;1986;52.546;13.428;2023-05-07T09:14:13;16.50;;;15.80;;
3943;SDS011;1986;52.546;13.428;2023-05-07T09:16:43;17.57;;;16.77;;
3943;SDS011;1986;52.546;13.428;2023-05-07T09:19:21;16.20;;;15.50;;
3943;SDS011;1986;52.546;13.428;2023-05-07T09:24:52;16.80;;;16.00;;
3943;SDS011;1986;52.546;13.428;2023-05-07T09:27:21;18.97;;;17.67;;
3943;SDS011;1986;52.546;13.428;2023-05-07T09:29:49;16.50;;;15.80;;
3943;SDS011;1986;52.546;13.428;2023-05-07T09:32:23;16.00;;;15.40;;
3943;SDS011;1986;52.546;13.428;2023-05-07T09:34:52;18.43;;;17.10;;
3943;SDS011;1986;52.546;13.428;2023-05-07T09:37:22;16.83;;;16.07;;
3943;SDS011;1986;52.546;13.428;2023-05-07T09:39:58;16.40;;;15.70;;
3943;SDS011;1986;52.546;13.428;2023-05-07T09:42:34;18.03;;;16.70;;
3943;SDS011;1986;52.546;13.428;2023-05-07T09:45:05;19.27;;;18.10;;
3943;SDS011;1986;52.546;13.428;2023-05-07T09:47:34;17.27;;;16.40;;
3943;SDS011;1986;52.546;13.428;2023-05-07T09:50:05;16.40;;;15.70;;
3943;SDS011;1986;52.546;13.428;2023-05-07T09:52:38;17.90;;;17.00;;
3943;SDS011;1986;52.546;13.428;2023-05-07T09:55:06;16.50;;;15.80;;
3943;SDS011;1986;52.546;13.428;2023-05-07T09:57:37;17.27;;;16.37;;
3943;SDS011;1986;52.546;13.428;2023-05-07T10:00:08;18.87;;;17.07;;
3943;SDS011;1986;52.546;13.428;2023-05-07T10:02:37;16.70;;;15.90;;
3943;SDS011;1986;52.546;13.428;2023-05-07T10:05:18;17.70;;;16.80;;
3943;SDS011;1986;52.546;13.428;2023-05-07T10:07:53;17.50;;;16.60;;
3943;SDS011;1986;52.546;13.428;2023-05-07T10:10:26;17.80;;;16.90;;
3943;SDS011;1986;52.546;13.428;2023-05-07T10:12:56;18.10;;;17.20;;
3943;SDS011;1986;52.546;13.428;2023-05-07T10:15:25;18.03;;;17.07;;
3943;SDS011;1986;52.546;13.428;2023-05-07T10:17:57;18.60;;;17.60;;
3943;SDS011;1986;52.546;13.428;2023-05-07T10:20:26;17.67;;;16.77;;
3943;SDS011;1986;52.546;13.428;2023-05-07T10:22:55;18.20;;;17.30;;
3943;SDS011;1986;52.546;13.428;2023-05-07T10:25:25;18.80;;;17.90;;
3943;SDS011;1986;52.546;13.428;2023-05-07T10:27:59;18.00;;;16.70;;
3943;SDS011;1986;52.546;13.428;2023-05-07T10:30:31;16.97;;;16.17;;
3943;SDS011;1986;52.546;13.428;2023-05-07T10:33:05;17.60;;;16.70;;
3943;SDS011;1986;52.546;13.428;2023-05-07T10:35:36;18.30;;;17.30;;
3943;SDS011;1986;52.546;13.428;2023-05-07T10:38:05;17.90;;;16.90;;
3943;SDS011;1986;52.546;13.428;2023-05-07T10:40:33;18.23;;;17.33;;
3943;SDS011;1986;52.546;13.428;2023-05-07T10:43:04;18.47;;;17.47;;
3943;SDS011;1986;52.546;13.428;2023-05-07T10:45:32;17.67;;;16.77;;
3943;SDS011;1986;52.546;13.428;2023-05-07T10:48:05;18.40;;;17.47;;
3943;SDS011;1986;52.546;13.428;2023-05-07T10:50:33;18.80;;;17.53;;
3943;SDS011;1986;52.546;13.428;2023-05-07T10:58:53;17.63;;;16.73;;
3943;SDS011;1986;52.546;13.428;2023-05-07T11:04:17;18.60;;;17.60;;
3943;SDS011;1986;52.546;13.428;2023-05-07T11:09:56;17.83;;;16.93;;
3943;SDS011;1986;52.546;13.428;2023-05-07T11:18:04;18.80;;;17.80;;
3943;SDS011;1986;52.546;13.428;2023-05-07T11:20:50;19.13;;;18.10;;
3943;SDS011;1986;52.546;13.428;2023-05-07T11:26:27;19.40;;;18.20;;
3943;SDS011;1986;52.546;13.428;2023-05-07T11:28:56;20.33;;;18.73;;
3943;SDS011;1986;52.546;13.428;2023-05-07T11:31:29;19.33;;;18.23;;
3943;SDS011;1986;52.546;13.428;2023-05-07T11:33:57;19.43;;;18.33;;
3943;SDS011;1986;52.546;13.428;2023-05-07T11:36:25;20.33;;;19.03;;
3943;SDS011;1986;52.546;13.428;2023-05-07T11:38:58;19.30;;;18.20;;
3943;SDS011;1986;52.546;13.428;2023-05-07T11:41:32;19.83;;;18.63;;
3943;SDS011;1986;52.546;13.428;2023-05-07T11:44:00;19.60;;;18.30;;
3943;SDS011;1986;52.546;13.428;2023-05-07T11:46:28;19.73;;;18.53;;
3943;SDS011;1986;52.546;13.428;2023-05-07T11:49:01;20.57;;;19.27;;
3943;SDS011;1986;52.546;13.428;2023-05-07T11:51:28;19.57;;;18.37;;
3943;SDS011;1986;52.546;13.428;2023-05-07T11:53:56;21.50;;;20.10;;
3943;SDS011;1986;52.546;13.428;2023-05-07T11:56:23;21.00;;;19.40;;
3943;SDS011;1986;52.546;13.428;2023-05-07T11:58:52;20.53;;;19.23;;
3943;SDS011;1986;52.546;13.428;2023-05-07T12:01:21;19.90;;;18.70;;
3943;SDS011;1986;52.546;13.428;2023-05-07T12:03:49;19.50;;;18.30;;
3943;SDS011;1986;52.546;13.428;2023-05-07T12:06:16;20.07;;;18.87;;
3943;SDS011;1986;52.546;13.428;2023-05-07T12:08:44;19.50;;;18.40;;
3943;SDS011;1986;52.546;13.428;2023-05-07T12:11:13;20.87;;;19.47;;
3943;SDS011;1986;52.546;13.428;2023-05-07T12:13:42;19.90;;;18.70;;
3943;SDS011;1986;52.546;13.428;2023-05-07T12:16:09;21.13;;;19.73;;
3943;SDS011;1986;52.546;13.428;2023-05-07T12:18:37;19.77;;;18.53;;
3943;SDS011;1986;52.546;13.428;2023-05-07T12:21:08;19.37;;;18.27;;
3943;SDS011;1986;52.546;13.428;2023-05-07T12:23:37;19.80;;;18.70;;
3943;SDS011;1986;52.546;13.428;2023-05-07T12:26:05;20.77;;;19.37;;
3943;SDS011;1986;52.546;13.428;2023-05-07T12:28:35;20.47;;;19.17;;
3943;SDS011;1986;52.546;13.428;2023-05-07T12:31:05;20.17;;;18.93;;
3943;SDS011;1986;52.546;13.428;2023-05-07T12:33:35;20.67;;;19.47;;
3943;SDS011;1986;52.546;13.428;2023-05-07T12:36:03;19.90;;;18.70;;
3943;SDS011;1986;52.546;13.428;2023-05-07T12:38:35;21.47;;;20.07;;
3943;SDS011;1986;52.546;13.428;2023-05-07T12:41:03;20.10;;;18.90;;
3943;SDS011;1986;52.546;13.428;2023-05-07T12:43:33;20.80;;;19.40;;
3943;SDS011;1986;52.546;13.428;2023-05-07T12:46:04;20.73;;;19.23;;
3943;SDS011;1986;52.546;13.428;2023-05-07T12:48:32;22.47;;;20.80;;
3943;SDS011;1986;52.546;13.428;2023-05-07T12:51:02;20.00;;;18.70;;
3943;SDS011;1986;52.546;13.428;2023-05-07T12:53:29;21.17;;;19.77;;
3943;SDS011;1986;52.546;13.428;2023-05-07T12:55:58;21.00;;;19.70;;
3943;SDS011;1986;52.546;13.428;2023-05-07T12:58:28;24.33;;;22.40;;
3943;SDS011;1986;52.546;13.428;2023-05-07T13:00:56;21.90;;;20.30;;
3943;SDS011;1986;52.546;13.428;2023-05-07T13:03:26;21.60;;;20.20;;
3943;SDS011;1986;52.546;13.428;2023-05-07T13:05:55;21.53;;;20.03;;
3943;SDS011;1986;52.546;13.428;2023-05-07T13:08:26;20.67;;;19.37;;
3943;SDS011;1986;52.546;13.428;2023-05-07T13:10:56;20.70;;;19.40;;
3943;SDS011;1986;52.546;13.428;2023-05-07T13:13:28;21.07;;;19.57;;
3943;SDS011;1986;52.546;13.428;2023-05-07T13:15:57;20.90;;;19.60;;
3943;SDS011;1986;52.546;13.428;2023-05-07T13:18:24;20.60;;;19.30;;
3943;SDS011;1986;52.546;13.428;2023-05-07T13:20:51;21.53;;;19.93;;
3943;SDS011;1986;52.546;13.428;2023-05-07T13:23:20;20.47;;;19.27;;
3943;SDS011;1986;52.546;13.428;2023-05-07T13:25:47;21.30;;;19.77;;
3943;SDS011;1986;52.546;13.428;2023-05-07T13:28:16;20.80;;;19.40;;
3943;SDS011;1986;52.546;13.428;2023-05-07T13:30:43;20.80;;;19.50;;
3943;SDS011;1986;52.546;13.428;2023-05-07T13:33:10;21.20;;;19.80;;
3943;SDS011;1986;52.546;13.428;2023-05-07T13:35:42;21.60;;;20.20;;
3943;SDS011;1986;52.546;13.428;2023-05-07T13:38:10;20.73;;;19.40;;
3943;SDS011;1986;52.546;13.428;2023-05-07T13:40:37;21.00;;;19.70;;
3943;SDS011;1986;52.546;13.428;2023-05-07T13:43:06;21.10;;;19.77;;
3943;SDS011;1986;52.546;13.428;2023-05-07T13:45:34;21.20;;;19.80;;
3943;SDS011;1986;52.546;13.428;2023-05-07T13:48:01;21.10;;;19.73;;
3943;SDS011;1986;52.546;13.428;2023-05-07T13:50:28;23.10;;;21.20;;
3943;SDS011;1986;52.546;13.428;2023-05-07T13:52:55;22.00;;;20.50;;
3943;SDS011;1986;52.546;13.428;2023-05-07T13:55:23;21.90;;;20.40;;
3943;SDS011;1986;52.546;13.428;2023-05-07T13:57:54;21.60;;;20.10;;
3943;SDS011;1986;52.546;13.428;2023-05-07T14:00:22;21.50;;;20.10;;
3943;SDS011;1986;52.546;13.428;2023-05-07T14:02:52;22.17;;;20.50;;
3943;SDS011;1986;52.546;13.428;2023-05-07T14:05:20;21.13;;;19.73;;
3943;SDS011;1986;52.546;13.428;2023-05-07T14:07:48;21.20;;;19.73;;
3943;SDS011;1986;52.546;13.428;2023-05-07T14:10:17;21.77;;;20.27;;
3943;SDS011;1986;52.546;13.428;2023-05-07T14:12:44;21.30;;;19.90;;
3943;SDS011;1986;52.546;13.428;2023-05-07T14:15:12;21.40;;;20.00;;
3943;SDS011;1986;52.546;13.428;2023-05-07T14:17:40;20.80;;;19.50;;
3943;SDS011;1986;52.546;13.428;2023-05-07T14:20:09;21.47;;;20.17;;
3943;SDS011;1986;52.546;13.428;2023-05-07T14:22:36;22.33;;;20.63;;
3943;SDS011;1986;52.546;13.428;2023-05-07T14:25:05;21.37;;;19.97;;
3943;SDS011;1986;52.546;13.428;2023-05-07T14:27:34;22.03;;;20.53;;
3943;SDS011;1986;52.546;13.428;2023-05-07T14:30:02;22.60;;;20.87;;
3943;SDS011;1986;52.546;13.428;2023-05-07T14:32:29;21.73;;;20.23;;
3943;SDS011;1986;52.546;13.428;2023-05-07T14:34:59;23.43;;;21.73;;
3943;SDS011;1986;52.546;13.428;2023-05-07T14:37:28;22.30;;;20.80;;
3943;SDS011;1986;52.546;13.428;2023-05-07T14:39:55;23.27;;;21.57;;
3943;SDS011;1986;52.546;13.428;2023-05-07T14:42:22;22.40;;;20.90;;
3943;SDS011;1986;52.546;13.428;2023-05-07T14:44:50;21.60;;;20.20;;
3943;SDS011;1986;52.546;13.428;2023-05-07T14:47:18;22.07;;;20.57;;
3943;SDS011;1986;52.546;13.428;2023-05-07T14:49:49;21.50;;;20.03;;
3943;SDS011;1986;52.546;13.428;2023-05-07T14:52:29;20.87;;;19.57;;
3943;SDS011;1986;52.546;13.428;2023-05-07T14:54:56;22.00;;;20.47;;
3943;SDS011;1986;52.546;13.428;2023-05-07T14:57:23;21.60;;;20.30;;
3943;SDS011;1986;52.546;13.428;2023-05-07T14:59:50;22.27;;;20.87;;
3943;SDS011;1986;52.546;13.428;2023-05-07T15:02:17;21.70;;;20.30;;
3943;SDS011;1986;52.546;13.428;2023-05-07T15:04:44;22.00;;;20.60;;
3943;SDS011;1986;52.546;13.428;2023-05-07T15:07:13;22.10;;;20.70;;
3943;SDS011;1986;52.546;13.428;2023-05-07T15:09:42;22.70;;;21.20;;
3943;SDS011;1986;52.546;13.428;2023-05-07T15:12:09;21.60;;;20.20;;
3943;SDS011;1986;52.546;13.428;2023-05-07T15:14:36;22.00;;;20.50;;
3943;SDS011;1986;52.546;13.428;2023-05-07T15:17:04;22.80;;;21.17;;
3943;SDS011;1986;52.546;13.428;2023-05-07T15:19:31;22.00;;;20.50;;
3943;SDS011;1986;52.546;13.428;2023-05-07T15:21:58;21.70;;;20.20;;
3943;SDS011;1986;52.546;13.428;2023-05-07T15:24:27;22.40;;;20.80;;